KNGP/NGP METAR and TAF weather

Enter ICAO airport designator
Station Type Date Time Source
KNGP METAR 2024/02/26 15:56 UTC NOAA

KNGP 261556Z 18010G19KT 10SM SCT011 SCT250 25/19 A3002 RMK AO2 SLP165 T02500194


Station Type Date Time Source
KNGP Decoded METAR 2024/02/26 15:56 UTC NOAA

CORPUS CHRISTI NAVAL AIR STN, TX, United States (KNGP) 27-41N 097-17W
Feb 26, 2024 - 10:56 AM EST / 2024.02.26 1556 UTC
Wind: from the S (180 degrees) at 12 MPH (10 KT) gusting to 22 MPH (19 KT):0
Visibility: 10 mile(s):0
Sky conditions: partly cloudy
Temperature: 77.0 F (25.0 C)
Dew Point: 66.9 F (19.4 C)
Relative Humidity: 71%
Pressure (altimeter): 30.02 in. Hg (1016 hPa)
ob: KNGP 261556Z 18010G19KT 10SM SCT011 SCT250 25/19 A3002 RMK AO2 SLP165 T02500194
cycle: 16

Station Type Date Time Source
KNGP TAF 2024/02/26 15:57 UTC NOAA